Time;durP1;ratioP1;P1;durP2;ratioP2;P2;SDS_P1;SDS_P2;PMS_P1;PMS_P2;Temp;Humidity;BMP_temperature;BMP_pressure;BME280_temperature;BME280_humidity;BME280_pressure;Samples;Min_cycle;Max_cycle;Signal;HPM_P1;HPM_P2
2022/06/28 00:02:20;;;;;;;3.15;0.75;;;14.00;93.60;;;;;;5110417;28;20055;-56
2022/06/28 00:04:48;;;;;;;6.32;0.80;;;14.00;93.70;;;;;;5090194;28;20056;-56
2022/06/28 00:07:16;;;;;;;8.18;0.80;;;14.00;93.90;;;;;;5107140;28;20052;-57
2022/06/28 00:09:44;;;;;;;7.63;1.00;;;14.00;94.00;;;;;;5110107;28;20403;-56
2022/06/28 00:12:11;;;;;;;8.15;2.25;;;14.00;94.10;;;;;;5092547;28;20379;-57
2022/06/28 00:17:25;;;;;;;9.63;1.58;;;14.00;94.30;;;;;;5090054;28;20506;-57
2022/06/28 00:19:53;;;;;;;11.02;1.45;;;14.00;94.40;;;;;;5103048;28;20438;-57
2022/06/28 00:22:20;;;;;;;13.73;0.90;;;13.90;94.70;;;;;;5091357;28;20040;-57
2022/06/28 00:24:48;;;;;;;6.03;1.23;;;13.90;94.50;;;;;;5105481;28;20043;-57
2022/06/28 00:27:15;;;;;;;7.40;0.98;;;13.80;94.70;;;;;;5108617;28;20044;-57
2022/06/28 00:29:43;;;;;;;13.45;1.58;;;13.80;95.00;;;;;;5105808;28;20047;-58
2022/06/28 00:32:11;;;;;;;8.05;1.00;;;13.80;95.50;;;;;;5110276;28;20039;-56
2022/06/28 00:34:39;;;;;;;9.13;1.00;;;13.80;95.50;;;;;;5102997;28;20048;-56
2022/06/28 00:37:06;;;;;;;3.30;0.65;;;13.70;95.70;;;;;;5095445;28;20044;-57
2022/06/28 00:39:34;;;;;;;9.30;1.67;;;13.70;95.90;;;;;;5098099;28;20497;-55
2022/06/28 00:42:02;;;;;;;6.93;1.05;;;13.60;96.10;;;;;;5100792;28;20052;-56
2022/06/28 00:44:30;;;;;;;10.65;1.33;;;13.60;96.30;;;;;;5110752;28;20522;-57
2022/06/28 00:46:58;;;;;;;10.82;1.70;;;13.60;96.50;;;;;;5090182;28;20044;-57
2022/06/28 00:49:26;;;;;;;8.77;1.10;;;13.50;96.60;;;;;;5088974;28;20040;-57
2022/06/28 00:51:57;;;;;;;9.68;1.48;;;13.50;97.00;;;;;;5088294;28;20462;-58
2022/06/28 00:54:25;;;;;;;11.27;1.00;;;13.40;97.20;;;;;;5093405;28;20047;-57
2022/06/28 00:56:53;;;;;;;7.50;0.80;;;13.40;97.50;;;;;;5106711;28;20039;-56
2022/06/28 00:59:21;;;;;;;8.00;1.02;;;13.30;97.80;;;;;;5095875;28;20048;-57
2022/06/28 01:01:49;;;;;;;6.68;0.88;;;13.30;97.80;;;;;;5098449;28;20394;-56
2022/06/28 01:04:17;;;;;;;8.80;1.40;;;13.30;98.30;;;;;;5094790;28;20048;-56
2022/06/28 01:06:45;;;;;;;10.68;1.10;;;13.20;98.60;;;;;;5070697;28;20121;-57
2022/06/28 01:09:13;;;;;;;7.45;1.08;;;13.20;98.60;;;;;;5078960;28;20052;-57
2022/06/28 01:11:41;;;;;;;3.85;0.80;;;13.10;98.90;;;;;;5102015;28;20059;-57
2022/06/28 01:14:09;;;;;;;12.05;1.02;;;13.10;99.20;;;;;;5107248;28;20399;-56
2022/06/28 01:17:09;;;;;;;7.70;1.00;;;13.00;99.30;;;;;;5099796;28;20052;-57
2022/06/28 01:19:46;;;;;;;6.32;0.85;;;13.00;99.60;;;;;;5102675;28;20125;-57
2022/06/28 01:22:40;;;;;;;7.78;1.23;;;12.90;99.90;;;;;;5108234;28;20062;-56
2022/06/28 01:25:12;;;;;;;3.53;1.20;;;12.80;99.90;;;;;;5106571;28;20044;-57
2022/06/28 01:27:43;;;;;;;6.05;1.00;;;12.80;99.90;;;;;;5088736;28;20040;-57
2022/06/28 01:30:11;;;;;;;10.57;1.20;;;12.70;99.90;;;;;;5089753;28;20166;-56
2022/06/28 01:32:55;;;;;;;10.70;1.15;;;12.70;99.90;;;;;;5105225;28;20051;-57
2022/06/28 01:35:23;;;;;;;6.88;1.58;;;12.70;99.90;;;;;;5095393;28;20063;-57
2022/06/28 01:37:51;;;;;;;8.63;1.08;;;12.60;99.90;;;;;;5089538;28;20051;-57
2022/06/28 01:40:20;;;;;;;6.20;0.93;;;12.60;99.90;;;;;;5108727;28;20051;-57
2022/06/28 01:42:49;;;;;;;4.93;1.02;;;12.60;99.90;;;;;;5108618;28;20051;-57
2022/06/28 01:45:17;;;;;;;6.65;0.98;;;12.60;99.90;;;;;;5104614;28;20043;-57
2022/06/28 01:47:47;;;;;;;11.75;1.50;;;12.60;99.90;;;;;;5075525;28;20043;-55
2022/06/28 01:50:33;;;;;;;15.40;1.35;;;12.60;99.90;;;;;;5110882;28;20044;-56
2022/06/28 01:53:01;;;;;;;14.48;2.47;;;12.60;99.90;;;;;;5093611;28;20045;-56
2022/06/28 01:55:29;;;;;;;8.45;1.90;;;12.60;99.90;;;;;;5107728;28;20043;-55
2022/06/28 01:57:58;;;;;;;8.30;1.17;;;12.60;99.90;;;;;;5106440;28;20059;-56
2022/06/28 02:00:26;;;;;;;11.13;1.50;;;12.60;99.90;;;;;;5077445;28;20071;-56
2022/06/28 02:02:58;;;;;;;12.57;2.03;;;12.60;99.90;;;;;;5109661;28;20046;-55
2022/06/28 02:05:52;;;;;;;7.72;1.10;;;12.60;99.90;;;;;;5078324;28;20056;-56
2022/06/28 02:08:21;;;;;;;7.97;1.50;;;12.50;99.90;;;;;;5091904;28;20033;-55
2022/06/28 02:10:59;;;;;;;12.45;1.58;;;12.50;99.90;;;;;;5104576;28;20047;-58
2022/06/28 02:13:44;;;;;;;8.18;1.30;;;12.50;99.90;;;;;;5101362;28;20048;-57
2022/06/28 02:16:12;;;;;;;11.45;1.67;;;12.50;99.90;;;;;;5112860;28;20052;-56
2022/06/28 02:18:40;;;;;;;8.88;1.38;;;12.40;99.90;;;;;;5113143;28;20039;-57
2022/06/28 02:21:08;;;;;;;17.85;2.67;;;12.40;99.90;;;;;;5113209;28;20039;-56
2022/06/28 02:23:36;;;;;;;5.80;1.50;;;12.30;99.90;;;;;;5113155;28;20035;-57
2022/06/28 02:26:04;;;;;;;9.98;1.25;;;12.30;99.90;;;;;;5104124;28;20059;-55
2022/06/28 02:28:32;;;;;;;13.02;2.85;;;12.30;99.90;;;;;;5093526;28;20048;-55
2022/06/28 02:30:59;;;;;;;7.65;1.10;;;12.20;99.90;;;;;;5075913;28;20074;-55
2022/06/28 02:33:27;;;;;;;3.40;1.05;;;12.20;99.90;;;;;;5097410;28;20039;-56
2022/06/28 02:41:27;;;;;;;5.50;1.20;;;12.30;99.90;;;;;;5112905;28;20044;-55
2022/06/28 02:43:55;;;;;;;6.82;1.55;;;12.30;99.90;;;;;;5113634;28;20414;-55
2022/06/28 02:46:23;;;;;;;13.32;1.77;;;12.30;99.90;;;;;;5105035;28;20635;-55
2022/06/28 02:48:50;;;;;;;13.05;1.60;;;12.30;99.90;;;;;;5097414;28;20479;-55
2022/06/28 02:51:18;;;;;;;12.70;1.45;;;12.20;99.90;;;;;;5112969;28;20126;-54
2022/06/28 02:53:46;;;;;;;8.43;1.50;;;12.20;99.90;;;;;;5112513;28;20487;-55
2022/06/28 02:56:14;;;;;;;10.18;1.55;;;12.20;99.90;;;;;;5103010;28;20044;-55
2022/06/28 02:58:41;;;;;;;8.05;1.27;;;12.20;99.90;;;;;;5093983;28;20048;-55
2022/06/28 03:01:09;;;;;;;5.15;1.27;;;12.20;99.90;;;;;;5116880;27;20475;-55
2022/06/28 03:03:37;;;;;;;12.68;1.60;;;12.20;99.90;;;;;;5103229;28;20055;-55
2022/06/28 03:06:06;;;;;;;5.85;1.13;;;12.20;99.90;;;;;;5103789;28;20647;-54
2022/06/28 03:08:34;;;;;;;8.77;2.25;;;12.20;99.90;;;;;;5092604;28;20048;-55
2022/06/28 03:11:02;;;;;;;12.50;2.35;;;12.20;99.90;;;;;;5093330;28;20048;-55
2022/06/28 03:13:30;;;;;;;9.85;2.33;;;12.20;99.90;;;;;;5092826;28;20388;-56
2022/06/28 03:15:59;;;;;;;7.90;1.50;;;12.20;99.90;;;;;;5092957;28;20537;-56
2022/06/28 03:18:26;;;;;;;15.65;1.95;;;12.20;99.90;;;;;;5114085;27;20046;-57
2022/06/28 03:20:54;;;;;;;9.25;1.20;;;12.20;99.90;;;;;;5112068;28;20047;-57
2022/06/28 03:23:22;;;;;;;11.95;1.30;;;12.30;99.90;;;;;;5112141;28;20051;-56
2022/06/28 03:25:49;;;;;;;21.58;3.67;;;12.30;99.90;;;;;;5094201;28;20062;-57
2022/06/28 03:28:17;;;;;;;15.27;1.88;;;12.30;99.90;;;;;;5112802;28;20044;-57
2022/06/28 03:30:52;;;;;;;18.35;2.13;;;12.30;99.90;;;;;;5111798;28;20055;-56
2022/06/28 03:33:20;;;;;;;11.35;1.25;;;12.30;99.90;;;;;;5112638;28;20519;-56
2022/06/28 03:35:48;;;;;;;6.80;1.25;;;12.30;99.90;;;;;;5110145;28;20040;-57
2022/06/28 03:38:17;;;;;;;8.98;0.95;;;12.30;99.90;;;;;;5096133;28;20051;-58
2022/06/28 03:41:22;;;;;;;11.98;1.13;;;12.30;99.90;;;;;;5099294;28;20401;-57
2022/06/28 03:43:56;;;;;;;14.43;1.60;;;12.30;99.90;;;;;;5112469;28;20101;-57
2022/06/28 03:46:24;;;;;;;11.25;1.75;;;12.30;99.90;;;;;;5109798;28;20408;-56
2022/06/28 03:49:02;;;;;;;9.88;1.23;;;12.30;99.90;;;;;;5112425;28;20051;-56
2022/06/28 03:51:45;;;;;;;8.90;1.40;;;12.30;99.90;;;;;;5096143;28;20561;-55
2022/06/28 03:54:46;;;;;;;16.90;1.88;;;12.30;99.90;;;;;;5100936;28;20043;-55
2022/06/28 03:57:31;;;;;;;9.95;1.40;;;12.30;99.90;;;;;;5104968;28;20056;-55
2022/06/28 03:59:59;;;;;;;14.15;1.35;;;12.30;99.90;;;;;;5111251;28;20055;-55
2022/06/28 04:02:27;;;;;;;14.05;1.50;;;12.30;99.90;;;;;;5109752;28;20039;-55
2022/06/28 04:04:55;;;;;;;8.45;1.48;;;12.30;99.90;;;;;;5110831;28;20047;-56
2022/06/28 04:07:23;;;;;;;12.60;1.77;;;12.30;99.90;;;;;;5098765;28;20048;-56
2022/06/28 04:09:51;;;;;;;15.77;2.28;;;12.30;99.90;;;;;;5111496;28;20032;-58
2022/06/28 04:12:19;;;;;;;10.02;1.42;;;12.30;99.90;;;;;;5093623;28;20503;-56
2022/06/28 04:14:48;;;;;;;7.13;1.23;;;12.30;99.90;;;;;;5094425;28;20058;-56
2022/06/28 04:17:15;;;;;;;9.27;1.42;;;12.30;99.90;;;;;;5110918;28;20055;-55
2022/06/28 04:20:04;;;;;;;8.52;0.98;;;12.30;99.90;;;;;;5111860;28;20043;-55
2022/06/28 04:22:39;;;;;;;9.85;1.33;;;12.30;99.90;;;;;;5109900;28;20050;-56
2022/06/28 04:25:07;;;;;;;17.80;1.60;;;12.30;99.90;;;;;;5108730;28;20050;-55
2022/06/28 04:27:47;;;;;;;19.30;1.92;;;12.30;99.90;;;;;;5089661;28;20044;-57
2022/06/28 04:30:15;;;;;;;8.20;1.20;;;12.30;99.90;;;;;;5090953;28;20055;-56
2022/06/28 04:32:49;;;;;;;16.52;1.40;;;12.30;99.90;;;;;;5087168;28;20494;-55
2022/06/28 04:35:20;;;;;;;10.88;1.30;;;12.30;99.90;;;;;;5108457;28;20040;-55
2022/06/28 04:37:47;;;;;;;11.13;1.35;;;12.30;99.90;;;;;;5107764;28;20046;-55
2022/06/28 04:40:25;;;;;;;9.70;1.85;;;12.30;99.90;;;;;;5111073;28;20058;-55
2022/06/28 04:43:07;;;;;;;11.98;1.30;;;12.30;99.90;;;;;;5111111;28;20054;-55
2022/06/28 04:45:35;;;;;;;9.85;1.30;;;12.30;99.90;;;;;;5101555;28;20047;-55
2022/06/28 04:48:08;;;;;;;8.45;1.20;;;12.30;99.90;;;;;;5087406;28;20059;-57
2022/06/28 04:50:36;;;;;;;9.88;1.77;;;12.30;99.90;;;;;;5091645;28;20048;-55
2022/06/28 04:53:04;;;;;;;9.20;2.05;;;12.30;99.90;;;;;;5086843;28;20044;-56
2022/06/28 04:55:33;;;;;;;9.40;1.38;;;12.30;99.90;;;;;;5071741;28;20048;-55
2022/06/28 04:58:06;;;;;;;9.73;1.08;;;12.30;99.90;;;;;;5107342;28;20494;-55
2022/06/28 05:00:34;;;;;;;9.55;1.55;;;12.30;99.90;;;;;;5107640;28;20070;-54
2022/06/28 05:03:23;;;;;;;11.73;1.20;;;12.30;99.90;;;;;;5097469;28;20197;-55
2022/06/28 05:06:02;;;;;;;15.02;2.92;;;12.30;99.90;;;;;;5092397;28;20046;-56
2022/06/28 05:08:32;;;;;;;8.73;1.30;;;12.30;99.90;;;;;;5104758;28;20390;-55
2022/06/28 05:11:01;;;;;;;14.52;1.52;;;12.30;99.90;;;;;;5094093;27;20044;-55
2022/06/28 05:13:49;;;;;;;10.88;2.97;;;12.30;99.90;;;;;;5100938;28;20056;-55
2022/06/28 05:16:17;;;;;;;9.27;2.00;;;12.30;99.90;;;;;;5104722;28;20062;-55
2022/06/28 05:18:45;;;;;;;12.02;1.98;;;12.40;99.90;;;;;;5108873;28;20055;-57
2022/06/28 05:21:16;;;;;;;17.83;1.83;;;12.40;99.90;;;;;;5101297;28;20052;-57
2022/06/28 05:23:45;;;;;;;8.07;1.55;;;12.40;99.90;;;;;;5109109;28;20040;-59
2022/06/28 05:26:33;;;;;;;8.35;2.35;;;12.40;99.90;;;;;;5107468;28;20036;-58
2022/06/28 05:29:30;;;;;;;6.93;1.40;;;12.50;99.90;;;;;;5084659;28;20055;-57
2022/06/28 05:31:58;;;;;;;14.30;1.98;;;12.50;99.90;;;;;;5086262;28;20506;-56
2022/06/28 05:34:26;;;;;;;8.68;1.38;;;12.50;99.90;;;;;;5094521;28;20043;-59
2022/06/28 05:36:54;;;;;;;8.43;1.60;;;12.50;99.90;;;;;;5089640;28;20040;-57
2022/06/28 05:39:21;;;;;;;11.32;1.88;;;12.60;99.90;;;;;;5088510;28;20048;-56
2022/06/28 05:41:49;;;;;;;14.10;1.38;;;12.70;99.90;;;;;;5102592;28;20555;-55
2022/06/28 05:44:16;;;;;;;12.07;1.58;;;12.70;99.90;;;;;;5086159;28;20040;-56
2022/06/28 05:46:44;;;;;;;7.68;1.25;;;12.70;99.90;;;;;;5089324;28;20051;-57
2022/06/28 05:49:12;;;;;;;10.77;1.33;;;12.80;99.90;;;;;;5089780;28;20497;-58
2022/06/28 05:51:40;;;;;;;5.95;1.23;;;12.90;99.90;;;;;;5100410;28;20050;-58
2022/06/28 05:54:11;;;;;;;10.32;2.03;;;13.00;99.90;;;;;;5112022;28;20051;-58
2022/06/28 05:56:39;;;;;;;10.88;1.45;;;13.10;99.90;;;;;;5098089;28;20067;-58
2022/06/28 05:59:07;;;;;;;17.38;1.63;;;13.10;99.90;;;;;;5110522;28;20474;-58
2022/06/28 06:01:34;;;;;;;9.73;1.55;;;13.20;99.90;;;;;;5094073;28;20763;-58
2022/06/28 06:04:02;;;;;;;5.57;0.90;;;13.30;99.90;;;;;;5112012;28;20047;-60
2022/06/28 06:06:30;;;;;;;12.75;1.55;;;13.30;99.90;;;;;;5092251;28;20054;-58
2022/06/28 06:08:59;;;;;;;10.40;1.42;;;13.30;99.90;;;;;;5109636;28;20058;-57
2022/06/28 06:11:29;;;;;;;10.68;2.28;;;13.30;99.90;;;;;;5099152;28;20039;-58
2022/06/28 06:13:57;;;;;;;12.88;1.45;;;13.30;99.90;;;;;;5105845;28;20491;-57
2022/06/28 06:16:25;;;;;;;8.77;1.75;;;13.30;99.90;;;;;;5111436;28;20538;-57
2022/06/28 06:18:56;;;;;;;8.52;1.50;;;13.30;99.90;;;;;;5110703;28;20039;-58
2022/06/28 06:21:24;;;;;;;10.57;1.40;;;13.30;99.90;;;;;;5104865;28;20047;-56
2022/06/28 06:23:52;;;;;;;16.08;1.83;;;13.40;99.90;;;;;;5109489;28;20495;-57
2022/06/28 06:26:49;;;;;;;10.75;1.95;;;13.30;99.90;;;;;;5091754;28;20470;-56
2022/06/28 06:29:17;;;;;;;11.90;2.55;;;13.40;99.90;;;;;;5109743;28;20040;-56
2022/06/28 06:31:45;;;;;;;9.52;2.55;;;13.50;99.90;;;;;;5100369;28;20054;-57
2022/06/28 06:34:41;;;;;;;7.10;1.85;;;13.50;99.90;;;;;;5107668;28;20047;-57
2022/06/28 06:37:11;;;;;;;8.75;1.35;;;13.40;99.90;;;;;;5095371;28;20423;-57
2022/06/28 06:39:39;;;;;;;13.57;1.80;;;13.50;99.90;;;;;;5111518;28;20043;-56
2022/06/28 06:42:07;;;;;;;6.60;1.20;;;13.50;99.90;;;;;;5107415;28;20043;-59
2022/06/28 06:44:35;;;;;;;10.65;1.17;;;13.60;99.90;;;;;;5094836;28;20052;-58
2022/06/28 06:47:04;;;;;;;10.75;1.85;;;13.60;99.90;;;;;;5107605;28;20047;-58
2022/06/28 06:49:32;;;;;;;7.83;1.67;;;13.70;99.90;;;;;;5110999;28;20518;-60
2022/06/28 06:52:00;;;;;;;11.02;1.80;;;13.70;99.90;;;;;;5096114;28;20296;-57
2022/06/28 06:54:28;;;;;;;19.42;1.45;;;13.70;99.90;;;;;;5093870;28;20048;-57
2022/06/28 06:56:56;;;;;;;11.23;2.45;;;13.70;99.90;;;;;;5110908;28;20044;-58
2022/06/28 06:59:23;;;;;;;11.13;2.47;;;13.70;99.90;;;;;;5104645;28;20755;-58
2022/06/28 07:01:52;;;;;;;9.63;1.38;;;13.70;99.90;;;;;;5093970;28;20384;-57
2022/06/28 07:04:26;;;;;;;16.88;1.52;;;13.80;99.90;;;;;;5091740;28;20039;-56
2022/06/28 07:07:00;;;;;;;9.57;1.92;;;13.80;99.90;;;;;;5093685;28;20055;-58
2022/06/28 07:09:28;;;;;;;14.20;1.73;;;13.90;99.90;;;;;;5100694;28;20067;-55
2022/06/28 07:11:57;;;;;;;16.17;3.08;;;14.00;99.90;;;;;;5092534;28;20040;-57
2022/06/28 07:14:25;;;;;;;11.35;1.48;;;14.10;99.90;;;;;;5109962;28;20055;-55
2022/06/28 07:16:53;;;;;;;8.77;2.20;;;14.20;99.90;;;;;;5124242;27;20050;-57
2022/06/28 07:19:22;;;;;;;10.48;1.73;;;14.20;99.90;;;;;;5107405;28;20502;-58
2022/06/28 07:21:51;;;;;;;15.88;1.90;;;14.10;99.90;;;;;;5104247;28;20066;-57
2022/06/28 07:24:19;;;;;;;12.68;2.50;;;14.10;99.90;;;;;;5094274;28;20042;-58
2022/06/28 07:26:49;;;;;;;8.18;1.70;;;14.10;99.90;;;;;;5107327;28;20036;-58
2022/06/28 07:29:16;;;;;;;11.57;1.65;;;14.10;99.90;;;;;;5105148;28;20079;-58
2022/06/28 07:31:45;;;;;;;13.23;2.67;;;14.20;99.90;;;;;;5107410;28;20048;-58
2022/06/28 07:34:15;;;;;;;9.60;1.15;;;14.30;99.90;;;;;;5105641;28;20494;-57
2022/06/28 07:36:44;;;;;;;11.85;1.70;;;14.40;99.90;;;;;;5103108;28;20036;-58
2022/06/28 07:39:11;;;;;;;9.73;2.08;;;14.50;99.90;;;;;;5094319;28;20052;-57
2022/06/28 07:42:11;;;;;;;16.58;1.77;;;14.70;99.90;;;;;;5068719;28;20055;-58
2022/06/28 07:45:08;;;;;;;10.70;1.63;;;14.80;99.90;;;;;;5090039;28;20059;-56
2022/06/28 07:47:36;;;;;;;10.55;2.55;;;15.00;99.90;;;;;;5102788;28;20043;-57
2022/06/28 07:52:53;;;;;;;13.93;1.35;;;15.10;99.90;;;;;;5084168;28;20047;-56
2022/06/28 07:55:28;;;;;;;14.20;1.52;;;15.20;99.90;;;;;;5110684;28;20046;-56
2022/06/28 07:58:09;;;;;;;12.20;1.60;;;15.20;99.90;;;;;;5105478;28;20048;-56
2022/06/28 08:00:38;;;;;;;7.03;1.15;;;15.30;99.90;;;;;;5103427;28;20067;-56
2022/06/28 08:03:14;;;;;;;10.98;2.88;;;15.30;99.90;;;;;;5102525;28;20044;-55
2022/06/28 08:05:42;;;;;;;6.55;1.67;;;15.40;99.90;;;;;;5120764;27;20360;-56
2022/06/28 08:08:10;;;;;;;16.02;1.92;;;15.50;99.90;;;;;;5108862;28;20052;-56
2022/06/28 08:10:38;;;;;;;18.55;1.83;;;15.60;99.90;;;;;;5107961;28;20051;-55
2022/06/28 08:13:12;;;;;;;8.98;1.40;;;15.60;99.90;;;;;;5108015;28;20056;-57
2022/06/28 08:15:45;;;;;;;8.80;2.05;;;15.70;99.90;;;;;;5108460;28;20038;-58
2022/06/28 08:18:13;;;;;;;10.88;2.05;;;15.70;99.90;;;;;;5101472;28;20413;-58
2022/06/28 08:20:42;;;;;;;15.23;1.95;;;15.80;99.90;;;;;;5107340;28;20042;-57
2022/06/28 08:23:12;;;;;;;8.55;1.25;;;15.80;99.90;;;;;;5109803;28;20044;-58
2022/06/28 08:25:42;;;;;;;8.60;1.88;;;15.90;99.90;;;;;;5109840;28;20040;-59
2022/06/28 08:28:11;;;;;;;11.50;1.25;;;15.80;99.90;;;;;;5101267;28;20785;-57
2022/06/28 08:30:40;;;;;;;11.07;1.38;;;15.90;99.90;;;;;;5106297;28;20498;-59
2022/06/28 08:33:11;;;;;;;7.22;1.40;;;15.90;99.90;;;;;;5099902;28;20044;-58
2022/06/28 08:35:39;;;;;;;10.27;1.40;;;16.00;99.90;;;;;;5104369;28;20039;-58
2022/06/28 08:38:10;;;;;;;17.23;1.88;;;16.00;99.90;;;;;;5105295;28;20627;-59
2022/06/28 08:40:38;;;;;;;8.93;1.42;;;16.00;99.90;;;;;;5108701;28;20043;-56
2022/06/28 08:43:07;;;;;;;11.32;1.20;;;16.10;99.90;;;;;;5107561;28;20545;-57
2022/06/28 08:45:43;;;;;;;10.52;1.45;;;16.10;99.90;;;;;;5098308;28;20046;-57
2022/06/28 08:48:17;;;;;;;11.13;1.80;;;16.00;99.90;;;;;;5091131;28;20048;-57
2022/06/28 08:50:51;;;;;;;6.93;1.42;;;15.90;99.90;;;;;;5106605;28;20035;-57
2022/06/28 08:53:21;;;;;;;10.15;2.83;;;15.80;99.90;;;;;;5110709;28;20047;-56
2022/06/28 08:55:50;;;;;;;13.73;2.03;;;15.80;99.90;;;;;;5104754;28;20040;-57
2022/06/28 08:58:19;;;;;;;14.02;1.25;;;15.90;99.90;;;;;;5099026;28;20054;-57
2022/06/28 09:00:47;;;;;;;6.97;1.20;;;15.90;99.90;;;;;;5104977;28;20515;-57
2022/06/28 09:03:16;;;;;;;10.50;1.40;;;15.90;99.90;;;;;;5101623;28;20044;-57
2022/06/28 09:05:44;;;;;;;9.37;1.30;;;15.80;99.90;;;;;;5106614;28;20520;-56
2022/06/28 09:08:15;;;;;;;8.57;1.13;;;15.80;99.90;;;;;;5100725;28;20048;-57
2022/06/28 09:10:43;;;;;;;9.75;1.63;;;15.80;99.90;;;;;;5109903;28;20051;-59
2022/06/28 09:13:19;;;;;;;12.30;1.05;;;15.80;99.90;;;;;;5110154;28;20047;-57
2022/06/28 09:15:54;;;;;;;9.00;1.23;;;15.80;99.90;;;;;;5101551;28;20395;-57
2022/06/28 09:18:42;;;;;;;9.65;1.58;;;15.80;99.90;;;;;;5102491;28;20047;-56
2022/06/28 09:21:15;;;;;;;11.52;1.88;;;15.80;99.90;;;;;;5108910;28;20044;-57
2022/06/28 09:23:49;;;;;;;12.65;2.22;;;16.00;99.90;;;;;;5108317;28;20133;-57
2022/06/28 09:26:21;;;;;;;8.35;1.38;;;16.10;99.90;;;;;;5109714;28;20051;-57
2022/06/28 09:28:51;;;;;;;5.43;0.65;;;16.30;99.90;;;;;;5108144;28;20074;-57
2022/06/28 09:31:27;;;;;;;8.63;1.33;;;16.40;99.90;;;;;;5109262;28;20055;-56
2022/06/28 09:34:04;;;;;;;7.90;1.83;;;16.50;99.90;;;;;;5104911;28;20403;-58
2022/06/28 09:36:38;;;;;;;4.38;0.90;;;16.60;99.90;;;;;;5107245;28;20051;-57
2022/06/28 09:39:13;;;;;;;7.05;1.38;;;16.60;99.90;;;;;;5106977;28;20052;-57
2022/06/28 09:41:49;;;;;;;6.40;0.90;;;16.60;99.90;;;;;;5109996;28;20498;-55
2022/06/28 09:44:37;;;;;;;9.05;1.42;;;16.50;99.90;;;;;;5090028;28;20051;-57
2022/06/28 09:47:11;;;;;;;3.42;0.70;;;16.40;99.90;;;;;;5089447;28;20067;-58
2022/06/28 09:49:46;;;;;;;11.50;0.90;;;16.40;99.90;;;;;;5096214;28;20042;-57
2022/06/28 09:52:16;;;;;;;9.00;1.08;;;16.30;99.90;;;;;;5097368;28;20036;-58
2022/06/28 09:54:49;;;;;;;9.05;1.50;;;16.30;99.90;;;;;;5093575;28;20036;-58
2022/06/28 09:57:23;;;;;;;4.50;1.10;;;16.30;99.90;;;;;;5108522;28;20055;-58
2022/06/28 09:59:51;;;;;;;3.45;0.68;;;16.30;99.90;;;;;;5103025;28;20507;-58
2022/06/28 10:02:18;;;;;;;8.75;1.20;;;16.40;99.90;;;;;;5108526;28;20044;-58
2022/06/28 10:04:46;;;;;;;6.07;0.80;;;16.60;99.90;;;;;;5102880;28;20048;-57
2022/06/28 10:07:14;;;;;;;4.72;1.23;;;16.70;99.90;;;;;;5104749;28;20399;-56
2022/06/28 10:09:43;;;;;;;4.50;1.10;;;16.90;99.40;;;;;;5107597;28;20040;-56
2022/06/28 10:15:04;;;;;;;10.97;1.20;;;17.10;99.00;;;;;;5088941;28;20052;-55
2022/06/28 10:18:09;;;;;;;5.35;1.40;;;17.20;98.30;;;;;;5089261;28;20044;-56
2022/06/28 10:20:39;;;;;;;5.95;1.58;;;17.20;98.80;;;;;;5104747;28;20048;-56
2022/06/28 10:23:22;;;;;;;6.05;1.08;;;17.30;99.00;;;;;;5109658;28;20043;-56
2022/06/28 10:26:05;;;;;;;4.45;0.90;;;17.30;98.90;;;;;;5098330;28;20055;-57
2022/06/28 10:28:34;;;;;;;9.70;1.80;;;17.30;98.20;;;;;;5097090;28;20036;-56
2022/06/28 10:31:20;;;;;;;8.50;0.98;;;17.30;98.30;;;;;;5102187;28;20043;-56
2022/06/28 10:34:13;;;;;;;12.05;1.10;;;17.40;98.20;;;;;;5102431;28;20639;-56
2022/06/28 10:36:54;;;;;;;5.18;0.90;;;17.40;97.70;;;;;;5108011;28;20416;-56
2022/06/28 10:39:24;;;;;;;7.32;1.20;;;17.50;97.80;;;;;;5100258;28;20051;-55
2022/06/28 10:42:06;;;;;;;5.78;0.93;;;17.50;97.90;;;;;;5112636;28;20525;-56
2022/06/28 10:44:34;;;;;;;2.65;0.98;;;17.60;97.80;;;;;;5111763;28;20557;-56
2022/06/28 10:47:01;;;;;;;6.22;0.90;;;17.70;97.50;;;;;;5110278;28;20044;-56
2022/06/28 10:49:45;;;;;;;7.68;1.30;;;17.90;97.60;;;;;;5103552;28;20036;-56
2022/06/28 10:52:15;;;;;;;10.05;1.40;;;18.10;96.90;;;;;;5111367;28;20391;-58
2022/06/28 10:54:56;;;;;;;10.05;1.02;;;18.20;96.60;;;;;;5112621;28;20495;-58
2022/06/28 10:57:45;;;;;;;6.67;1.20;;;18.30;96.00;;;;;;5111639;28;20040;-56
2022/06/28 11:00:26;;;;;;;7.60;1.05;;;18.20;95.80;;;;;;5112489;28;20047;-56
2022/06/28 11:02:56;;;;;;;6.00;1.23;;;18.10;96.00;;;;;;5110777;28;20039;-57
2022/06/28 11:05:48;;;;;;;8.82;1.80;;;17.90;96.30;;;;;;5108036;28;20036;-58
2022/06/28 11:08:38;;;;;;;9.88;1.40;;;17.90;96.90;;;;;;5104208;28;20040;-58
2022/06/28 11:11:06;;;;;;;8.15;1.45;;;17.80;96.60;;;;;;5108574;28;20043;-58
2022/06/28 11:13:33;;;;;;;11.30;2.13;;;17.70;96.50;;;;;;5111707;28;20048;-58
2022/06/28 11:16:01;;;;;;;6.93;1.10;;;17.60;96.60;;;;;;5105965;28;20048;-58
2022/06/28 11:18:30;;;;;;;5.50;0.90;;;17.50;96.70;;;;;;5101198;28;20047;-57
2022/06/28 11:20:59;;;;;;;5.80;1.10;;;17.60;96.90;;;;;;5099452;28;20050;-57
2022/06/28 11:23:31;;;;;;;13.65;1.45;;;17.60;97.20;;;;;;5112364;28;20046;-58
2022/06/28 11:29:03;;;;;;;9.50;1.45;;;17.90;97.20;;;;;;5096706;28;20044;-58
2022/06/28 11:31:41;;;;;;;5.72;1.23;;;18.40;96.90;;;;;;5112017;28;20051;-59
2022/06/28 11:34:12;;;;;;;11.50;1.17;;;18.80;96.10;;;;;;5111953;28;20043;-58
2022/06/28 11:36:44;;;;;;;12.98;1.80;;;19.00;95.30;;;;;;5103402;28;20048;-56
2022/06/28 11:39:22;;;;;;;10.23;1.35;;;19.00;94.90;;;;;;5108365;28;20055;-57
2022/06/28 11:41:54;;;;;;;6.93;1.23;;;18.90;94.70;;;;;;5107014;28;20062;-56
2022/06/28 11:44:24;;;;;;;5.57;0.95;;;18.80;95.20;;;;;;5109754;28;20071;-57
2022/06/28 11:46:52;;;;;;;8.13;1.05;;;18.70;94.70;;;;;;5106998;28;20058;-55
2022/06/28 11:49:31;;;;;;;14.13;1.73;;;18.50;94.80;;;;;;5108343;28;20047;-56
2022/06/28 11:52:02;;;;;;;10.80;1.63;;;18.30;95.00;;;;;;5105561;28;20040;-58
2022/06/28 11:54:30;;;;;;;5.18;0.90;;;18.10;95.40;;;;;;5104059;28;20043;-58
2022/06/28 11:57:15;;;;;;;9.00;1.80;;;18.00;96.10;;;;;;5106238;28;20056;-59
2022/06/28 11:59:59;;;;;;;4.63;2.05;;;17.90;96.20;;;;;;5106325;28;20388;-57
2022/06/28 12:02:36;;;;;;;13.25;2.05;;;17.90;96.10;;;;;;5106584;28;20040;-58
2022/06/28 12:05:08;;;;;;;6.22;1.10;;;17.80;96.10;;;;;;5105941;28;20044;-58
2022/06/28 12:07:39;;;;;;;4.13;0.88;;;17.70;96.20;;;;;;5105134;28;20040;-58
2022/06/28 12:10:28;;;;;;;10.32;1.20;;;17.70;96.20;;;;;;5099846;28;20052;-58
2022/06/28 12:12:58;;;;;;;8.45;1.10;;;17.70;96.60;;;;;;5100986;28;20039;-58
2022/06/28 12:15:31;;;;;;;3.53;1.05;;;17.80;96.30;;;;;;5105792;28;20042;-59
2022/06/28 12:18:05;;;;;;;7.60;1.25;;;17.80;96.60;;;;;;5092165;28;20063;-58
2022/06/28 12:20:33;;;;;;;10.73;1.35;;;17.90;96.50;;;;;;5094279;28;20040;-58
2022/06/28 12:23:04;;;;;;;3.83;1.00;;;18.00;95.90;;;;;;5108009;28;20051;-58
2022/06/28 12:25:33;;;;;;;8.52;1.13;;;18.10;96.30;;;;;;5105650;28;20426;-58
2022/06/28 12:28:01;;;;;;;12.13;1.48;;;18.20;95.60;;;;;;5090518;28;20507;-58
2022/06/28 12:30:28;;;;;;;3.50;0.70;;;18.30;95.30;;;;;;5090855;28;20048;-58
2022/06/28 12:32:59;;;;;;;12.77;1.60;;;18.30;95.50;;;;;;5100057;28;20062;-58
2022/06/28 12:35:27;;;;;;;7.57;1.10;;;18.30;95.30;;;;;;5110922;28;20040;-58
2022/06/28 12:37:55;;;;;;;5.90;1.20;;;18.20;95.20;;;;;;5105884;28;20055;-57
2022/06/28 12:40:24;;;;;;;10.23;1.02;;;18.10;95.60;;;;;;5092877;28;20044;-59
2022/06/28 12:42:52;;;;;;;8.05;1.00;;;18.00;96.00;;;;;;5109772;28;20035;-57
2022/06/28 12:45:20;;;;;;;10.13;1.92;;;18.00;96.00;;;;;;5109360;28;20051;-57
2022/06/28 12:47:49;;;;;;;13.05;1.40;;;18.00;95.90;;;;;;5106809;28;20070;-58
2022/06/28 12:50:17;;;;;;;7.53;1.20;;;18.00;95.80;;;;;;5093415;28;20403;-61
2022/06/28 12:52:45;;;;;;;14.68;2.25;;;18.10;96.00;;;;;;5108895;28;20035;-59
2022/06/28 12:55:13;;;;;;;12.25;1.38;;;18.20;95.80;;;;;;5110215;28;20044;-56
2022/06/28 12:57:41;;;;;;;7.13;1.42;;;18.20;95.40;;;;;;5106421;28;20048;-58
2022/06/28 13:00:11;;;;;;;6.30;1.08;;;18.20;95.20;;;;;;5100543;28;20048;-58
2022/06/28 13:02:39;;;;;;;13.10;1.15;;;18.10;95.50;;;;;;5108712;28;20043;-58
2022/06/28 13:05:10;;;;;;;6.28;0.82;;;18.10;95.50;;;;;;5108345;28;20048;-58
2022/06/28 13:07:41;;;;;;;8.30;1.47;;;18.00;95.80;;;;;;5108053;28;20039;-57
2022/06/28 13:10:16;;;;;;;7.18;1.38;;;18.00;95.20;;;;;;5101864;28;20055;-56
2022/06/28 13:12:46;;;;;;;8.38;0.90;;;17.90;95.20;;;;;;5090443;28;20048;-56
2022/06/28 13:15:19;;;;;;;11.77;1.35;;;17.90;95.30;;;;;;5100075;28;20390;-56
2022/06/28 13:17:47;;;;;;;8.65;1.15;;;17.90;95.30;;;;;;5107089;28;20047;-58
2022/06/28 13:20:14;;;;;;;5.28;1.30;;;18.00;95.10;;;;;;5100702;28;20035;-58
2022/06/28 13:23:08;;;;;;;8.65;1.00;;;18.10;95.20;;;;;;5110005;28;20050;-58
2022/06/28 13:25:37;;;;;;;7.82;1.70;;;18.20;95.00;;;;;;5107671;28;20047;-56